sensor_id;sensor_type;location;lat;lon;timestamp;pressure;altitude;pressure_sealevel;temperature;humidity
25430;BME280;13360;48.152;-1.788;2023-02-18T00:01:01;103865.59;;;13.32;100.00
25430;BME280;13360;48.152;-1.788;2023-02-18T00:03:30;103843.88;;;13.29;100.00
25430;BME280;13360;48.152;-1.788;2023-02-18T00:05:55;103840.41;;;13.34;100.00
25430;BME280;13360;48.152;-1.788;2023-02-18T00:08:21;103837.38;;;13.35;100.00
25430;BME280;13360;48.152;-1.788;2023-02-18T00:10:47;103830.97;;;13.35;100.00
25430;BME280;13360;48.152;-1.788;2023-02-18T00:13:12;103827.38;;;13.34;100.00
25430;BME280;13360;48.152;-1.788;2023-02-18T00:15:38;103829.66;;;13.37;100.00
25430;BME280;13360;48.152;-1.788;2023-02-18T00:18:04;103813.84;;;13.38;100.00
25430;BME280;13360;48.152;-1.788;2023-02-18T00:20:30;103807.44;;;13.37;100.00
25430;BME280;13360;48.152;-1.788;2023-02-18T00:22:58;103791.25;;;13.34;100.00
25430;BME280;13360;48.152;-1.788;2023-02-18T00:25:23;103783.78;;;13.35;100.00
25430;BME280;13360;48.152;-1.788;2023-02-18T00:27:48;103779.06;;;13.35;100.00
25430;BME280;13360;48.152;-1.788;2023-02-18T00:30:14;103771.19;;;13.32;100.00
25430;BME280;13360;48.152;-1.788;2023-02-18T00:32:39;103761.19;;;13.31;100.00
25430;BME280;13360;48.152;-1.788;2023-02-18T00:35:05;103750.72;;;13.33;100.00
25430;BME280;13360;48.152;-1.788;2023-02-18T00:37:30;103759.63;;;13.35;100.00
25430;BME280;13360;48.152;-1.788;2023-02-18T00:39:55;103750.06;;;13.31;100.00
25430;BME280;13360;48.152;-1.788;2023-02-18T00:42:21;103746.69;;;13.29;100.00
25430;BME280;13360;48.152;-1.788;2023-02-18T00:44:46;103744.78;;;13.30;100.00
25430;BME280;13360;48.152;-1.788;2023-02-18T00:47:11;103729.44;;;13.27;100.00
25430;BME280;13360;48.152;-1.788;2023-02-18T00:49:37;103722.22;;;13.26;100.00
25430;BME280;13360;48.152;-1.788;2023-02-18T00:52:03;103711.59;;;13.23;100.00
25430;BME280;13360;48.152;-1.788;2023-02-18T00:54:28;103704.34;;;13.22;100.00
25430;BME280;13360;48.152;-1.788;2023-02-18T00:56:54;103699.06;;;13.21;100.00
25430;BME280;13360;48.152;-1.788;2023-02-18T00:59:19;103691.56;;;13.21;100.00
25430;BME280;13360;48.152;-1.788;2023-02-18T01:01:44;103685.41;;;13.19;100.00
25430;BME280;13360;48.152;-1.788;2023-02-18T01:04:10;103683.47;;;13.20;100.00
25430;BME280;13360;48.152;-1.788;2023-02-18T01:06:35;103685.41;;;13.19;100.00
25430;BME280;13360;48.152;-1.788;2023-02-18T01:09:01;103667.53;;;13.15;100.00
25430;BME280;13360;48.152;-1.788;2023-02-18T01:11:26;103683.81;;;13.11;100.00
25430;BME280;13360;48.152;-1.788;2023-02-18T01:13:51;103674.88;;;13.09;100.00
25430;BME280;13360;48.152;-1.788;2023-02-18T01:16:17;103672.94;;;13.10;100.00
25430;BME280;13360;48.152;-1.788;2023-02-18T01:18:44;103670.66;;;13.07;100.00
25430;BME280;13360;48.152;-1.788;2023-02-18T01:21:09;103662.97;;;12.97;100.00
25430;BME280;13360;48.152;-1.788;2023-02-18T01:23:39;103664.16;;;13.01;100.00
25430;BME280;13360;48.152;-1.788;2023-02-18T01:26:05;103646.91;;;12.99;100.00
25430;BME280;13360;48.152;-1.788;2023-02-18T01:28:30;103658.47;;;13.08;100.00
25430;BME280;13360;48.152;-1.788;2023-02-18T01:30:56;103650.16;;;13.08;100.00
25430;BME280;13360;48.152;-1.788;2023-02-18T01:33:21;103642.91;;;13.07;100.00
25430;BME280;13360;48.152;-1.788;2023-02-18T01:35:47;103640.97;;;13.07;100.00
25430;BME280;13360;48.152;-1.788;2023-02-18T01:38:12;103641.56;;;13.09;100.00
25430;BME280;13360;48.152;-1.788;2023-02-18T01:40:45;103641.13;;;13.12;100.00
25430;BME280;13360;48.152;-1.788;2023-02-18T01:43:13;103640.72;;;13.09;100.00
25430;BME280;13360;48.152;-1.788;2023-02-18T01:51:08;103645.34;;;13.03;100.00
25430;BME280;13360;48.152;-1.788;2023-02-18T01:56:08;103656.69;;;13.02;100.00
25430;BME280;13360;48.152;-1.788;2023-02-18T01:58:35;103648.84;;;12.99;100.00
25430;BME280;13360;48.152;-1.788;2023-02-18T02:01:01;103648.13;;;12.92;100.00
25430;BME280;13360;48.152;-1.788;2023-02-18T02:03:26;103640.66;;;12.92;100.00
25430;BME280;13360;48.152;-1.788;2023-02-18T02:05:52;103621.00;;;12.82;100.00
25430;BME280;13360;48.152;-1.788;2023-02-18T02:08:17;103629.06;;;12.83;100.00
25430;BME280;13360;48.152;-1.788;2023-02-18T02:11:02;103630.16;;;12.82;100.00
25430;BME280;13360;48.152;-1.788;2023-02-18T02:16:09;103645.22;;;12.87;100.00
25430;BME280;13360;48.152;-1.788;2023-02-18T02:19:01;103644.38;;;12.86;100.00
25430;BME280;13360;48.152;-1.788;2023-02-18T02:37:43;103633.78;;;12.83;100.00
25430;BME280;13360;48.152;-1.788;2023-02-18T02:53:16;103652.94;;;12.85;100.00
25430;BME280;13360;48.152;-1.788;2023-02-18T02:55:44;103659.09;;;12.87;100.00
25430;BME280;13360;48.152;-1.788;2023-02-18T02:58:14;103668.00;;;12.89;100.00
25430;BME280;13360;48.152;-1.788;2023-02-18T03:06:15;103666.56;;;12.86;100.00
25430;BME280;13360;48.152;-1.788;2023-02-18T03:11:21;103675.75;;;12.87;100.00
25430;BME280;13360;48.152;-1.788;2023-02-18T03:13:56;103663.78;;;12.86;100.00
25430;BME280;13360;48.152;-1.788;2023-02-18T03:16:27;103669.34;;;12.86;100.00
25430;BME280;13360;48.152;-1.788;2023-02-18T03:26:16;103660.19;;;12.86;100.00
25430;BME280;13360;48.152;-1.788;2023-02-18T03:28:44;103660.19;;;12.86;100.00
25430;BME280;13360;48.152;-1.788;2023-02-18T03:31:13;103647.16;;;12.86;100.00
25430;BME280;13360;48.152;-1.788;2023-02-18T03:33:51;103634.00;;;12.81;100.00
25430;BME280;13360;48.152;-1.788;2023-02-18T03:36:19;103624.84;;;12.81;100.00
25430;BME280;13360;48.152;-1.788;2023-02-18T03:38:59;103610.13;;;12.80;100.00
25430;BME280;13360;48.152;-1.788;2023-02-18T03:41:25;103584.31;;;12.68;100.00
25430;BME280;13360;48.152;-1.788;2023-02-18T03:43:59;103595.66;;;12.67;100.00
25430;BME280;13360;48.152;-1.788;2023-02-18T03:46:26;103602.53;;;12.64;100.00
25430;BME280;13360;48.152;-1.788;2023-02-18T03:48:52;103617.84;;;12.67;100.00
25430;BME280;13360;48.152;-1.788;2023-02-18T03:51:18;103610.63;;;12.66;100.00
25430;BME280;13360;48.152;-1.788;2023-02-18T03:53:44;103622.56;;;12.66;100.00
25430;BME280;13360;48.152;-1.788;2023-02-18T03:56:09;103635.34;;;12.67;100.00
25430;BME280;13360;48.152;-1.788;2023-02-18T03:58:35;103648.97;;;12.69;100.00
25430;BME280;13360;48.152;-1.788;2023-02-18T04:01:00;103653.66;;;12.68;100.00
25430;BME280;13360;48.152;-1.788;2023-02-18T04:03:26;103653.06;;;12.66;100.00
25430;BME280;13360;48.152;-1.788;2023-02-18T04:05:51;103665.00;;;12.67;100.00
25430;BME280;13360;48.152;-1.788;2023-02-18T04:08:16;103679.09;;;12.65;100.00
25430;BME280;13360;48.152;-1.788;2023-02-18T04:10:42;103680.78;;;12.66;100.00
25430;BME280;13360;48.152;-1.788;2023-02-18T04:13:07;103678.25;;;12.65;100.00
25430;BME280;13360;48.152;-1.788;2023-02-18T04:15:33;103684.88;;;12.64;100.00
25430;BME280;13360;48.152;-1.788;2023-02-18T04:17:59;103709.59;;;12.65;100.00
25430;BME280;13360;48.152;-1.788;2023-02-18T04:20:24;103699.59;;;12.64;100.00
25430;BME280;13360;48.152;-1.788;2023-02-18T04:22:49;103704.06;;;12.65;100.00
25430;BME280;13360;48.152;-1.788;2023-02-18T04:25:15;103716.84;;;12.66;100.00
25430;BME280;13360;48.152;-1.788;2023-02-18T04:27:40;103714.06;;;12.66;100.00
25430;BME280;13360;48.152;-1.788;2023-02-18T04:30:07;103705.16;;;12.64;100.00
25430;BME280;13360;48.152;-1.788;2023-02-18T04:32:32;103719.84;;;12.65;100.00
25430;BME280;13360;48.152;-1.788;2023-02-18T04:34:58;103717.09;;;12.65;100.00
25430;BME280;13360;48.152;-1.788;2023-02-18T04:37:23;103721.56;;;12.66;100.00
25430;BME280;13360;48.152;-1.788;2023-02-18T04:39:48;103724.91;;;12.68;100.00
25430;BME280;13360;48.152;-1.788;2023-02-18T04:42:14;103733.47;;;12.66;100.00
25430;BME280;13360;48.152;-1.788;2023-02-18T04:44:39;103725.41;;;12.65;100.00
25430;BME280;13360;48.152;-1.788;2023-02-18T04:47:05;103729.03;;;12.65;100.00
25430;BME280;13360;48.152;-1.788;2023-02-18T04:49:30;103728.19;;;12.65;100.00
25430;BME280;13360;48.152;-1.788;2023-02-18T04:51:56;103730.94;;;12.65;100.00
25430;BME280;13360;48.152;-1.788;2023-02-18T04:54:21;103725.66;;;12.63;100.00
25430;BME280;13360;48.152;-1.788;2023-02-18T04:56:47;103731.19;;;12.63;100.00
25430;BME280;13360;48.152;-1.788;2023-02-18T04:59:12;103723.34;;;12.60;100.00
25430;BME280;13360;48.152;-1.788;2023-02-18T05:01:37;103723.34;;;12.60;100.00
25430;BME280;13360;48.152;-1.788;2023-02-18T05:04:03;103732.28;;;12.62;100.00
25430;BME280;13360;48.152;-1.788;2023-02-18T05:06:28;103731.44;;;12.62;100.00
25430;BME280;13360;48.152;-1.788;2023-02-18T05:08:54;103725.03;;;12.61;100.00
25430;BME280;13360;48.152;-1.788;2023-02-18T05:11:19;103722.28;;;12.61;100.00
25430;BME280;13360;48.152;-1.788;2023-02-18T05:13:44;103726.72;;;12.62;100.00
25430;BME280;13360;48.152;-1.788;2023-02-18T05:16:10;103732.88;;;12.64;100.00
25430;BME280;13360;48.152;-1.788;2023-02-18T05:18:35;103741.81;;;12.66;100.00
25430;BME280;13360;48.152;-1.788;2023-02-18T05:21:00;103725.41;;;12.65;100.00
25430;BME280;13360;48.152;-1.788;2023-02-18T05:23:26;103735.66;;;12.64;100.00
25430;BME280;13360;48.152;-1.788;2023-02-18T05:25:51;103746.75;;;12.64;100.00
25430;BME280;13360;48.152;-1.788;2023-02-18T05:28:17;103752.28;;;12.64;100.00
25430;BME280;13360;48.152;-1.788;2023-02-18T05:30:42;103761.69;;;12.63;100.00
25430;BME280;13360;48.152;-1.788;2023-02-18T05:33:07;103757.25;;;12.62;100.00
25430;BME280;13360;48.152;-1.788;2023-02-18T05:35:33;103762.19;;;12.60;100.00
25430;BME280;13360;48.152;-1.788;2023-02-18T05:37:58;103761.44;;;12.53;100.00
25430;BME280;13360;48.152;-1.788;2023-02-18T05:40:23;103781.53;;;12.48;100.00
25430;BME280;13360;48.152;-1.788;2023-02-18T05:42:49;103776.94;;;12.42;100.00
25430;BME280;13360;48.152;-1.788;2023-02-18T05:45:14;103794.44;;;12.43;100.00
25430;BME280;13360;48.152;-1.788;2023-02-18T05:47:39;103800.56;;;12.45;100.00
25430;BME280;13360;48.152;-1.788;2023-02-18T05:50:05;103805.28;;;12.44;100.00
25430;BME280;13360;48.152;-1.788;2023-02-18T05:52:31;103819.97;;;12.45;100.00
25430;BME280;13360;48.152;-1.788;2023-02-18T05:54:56;103822.16;;;12.43;100.00
25430;BME280;13360;48.152;-1.788;2023-02-18T05:57:22;103822.16;;;12.43;100.00
25430;BME280;13360;48.152;-1.788;2023-02-18T05:59:47;103829.38;;;12.44;100.00
25430;BME280;13360;48.152;-1.788;2023-02-18T06:02:12;103840.25;;;12.45;100.00
25430;BME280;13360;48.152;-1.788;2023-02-18T06:04:38;103838.31;;;12.46;100.00
25430;BME280;13360;48.152;-1.788;2023-02-18T06:07:05;103842.78;;;12.47;100.00
25430;BME280;13360;48.152;-1.788;2023-02-18T06:09:30;103848.78;;;12.44;100.00
25430;BME280;13360;48.152;-1.788;2023-02-18T06:11:56;103853.25;;;12.45;100.00
25430;BME280;13360;48.152;-1.788;2023-02-18T06:14:21;103851.56;;;12.44;100.00
25430;BME280;13360;48.152;-1.788;2023-02-18T06:16:46;103850.72;;;12.43;100.00
25430;BME280;13360;48.152;-1.788;2023-02-18T06:19:12;103866.03;;;12.46;100.00
25430;BME280;13360;48.152;-1.788;2023-02-18T06:21:37;103865.81;;;12.47;100.00
25430;BME280;13360;48.152;-1.788;2023-02-18T06:24:03;103864.72;;;12.48;100.00
25430;BME280;13360;48.152;-1.788;2023-02-18T06:26:28;103870.50;;;12.47;100.00
25430;BME280;13360;48.152;-1.788;2023-02-18T06:28:53;103870.97;;;12.44;100.00
25430;BME280;13360;48.152;-1.788;2023-02-18T06:31:19;103883.16;;;12.43;100.00
25430;BME280;13360;48.152;-1.788;2023-02-18T06:33:44;103889.53;;;12.43;100.00
25430;BME280;13360;48.152;-1.788;2023-02-18T06:36:11;103894.84;;;12.45;100.00
25430;BME280;13360;48.152;-1.788;2023-02-18T06:38:38;103898.69;;;12.44;100.00
25430;BME280;13360;48.152;-1.788;2023-02-18T06:41:04;103911.72;;;12.43;100.00
25430;BME280;13360;48.152;-1.788;2023-02-18T06:43:29;103908.09;;;12.43;100.00
25430;BME280;13360;48.152;-1.788;2023-02-18T06:45:55;103924.72;;;12.43;100.00
25430;BME280;13360;48.152;-1.788;2023-02-18T06:48:22;103927.75;;;12.41;100.00
25430;BME280;13360;48.152;-1.788;2023-02-18T06:50:48;103923.03;;;12.42;100.00
25430;BME280;13360;48.152;-1.788;2023-02-18T06:53:13;103939.44;;;12.43;100.00
25430;BME280;13360;48.152;-1.788;2023-02-18T06:55:41;103936.44;;;12.45;100.00
25430;BME280;13360;48.152;-1.788;2023-02-18T06:58:06;103936.44;;;12.45;100.00
25430;BME280;13360;48.152;-1.788;2023-02-18T07:00:32;103946.91;;;12.43;100.00
25430;BME280;13360;48.152;-1.788;2023-02-18T07:02:57;103940.28;;;12.44;100.00
25430;BME280;13360;48.152;-1.788;2023-02-18T07:05:22;103941.22;;;12.38;100.00
25430;BME280;13360;48.152;-1.788;2023-02-18T07:07:48;103943.53;;;12.41;100.00
25430;BME280;13360;48.152;-1.788;2023-02-18T07:10:13;103944.59;;;12.40;100.00
25430;BME280;13360;48.152;-1.788;2023-02-18T07:12:39;103946.06;;;12.42;100.00
25430;BME280;13360;48.152;-1.788;2023-02-18T07:15:04;103955.22;;;12.43;100.00
25430;BME280;13360;48.152;-1.788;2023-02-18T07:17:29;103964.16;;;12.45;100.00
25430;BME280;13360;48.152;-1.788;2023-02-18T07:19:55;103958.16;;;12.48;100.00
25430;BME280;13360;48.152;-1.788;2023-02-18T07:22:21;103962.63;;;12.49;100.00
25430;BME280;13360;48.152;-1.788;2023-02-18T07:24:50;103962.22;;;12.45;100.00
25430;BME280;13360;48.152;-1.788;2023-02-18T07:27:16;103944.84;;;12.38;100.00
25430;BME280;13360;48.152;-1.788;2023-02-18T07:29:42;103939.69;;;12.42;100.00
25430;BME280;13360;48.152;-1.788;2023-02-18T07:32:07;103940.28;;;12.44;100.00
25430;BME280;13360;48.152;-1.788;2023-02-18T07:34:32;103940.06;;;12.45;100.00
25430;BME280;13360;48.152;-1.788;2023-02-18T07:36:58;103944.97;;;12.43;100.00
25430;BME280;13360;48.152;-1.788;2023-02-18T07:39:23;103956.06;;;12.43;100.00
25430;BME280;13360;48.152;-1.788;2023-02-18T07:41:48;103969.09;;;12.43;100.00
25430;BME280;13360;48.152;-1.788;2023-02-18T07:44:14;103969.69;;;12.45;100.00
25430;BME280;13360;48.152;-1.788;2023-02-18T07:46:40;103975.63;;;12.48;100.00
25430;BME280;13360;48.152;-1.788;2023-02-18T07:49:06;103988.66;;;12.48;100.00
25430;BME280;13360;48.152;-1.788;2023-02-18T07:51:32;103967.16;;;12.43;100.00
25430;BME280;13360;48.152;-1.788;2023-02-18T07:53:57;103963.94;;;12.46;100.00
25430;BME280;13360;48.152;-1.788;2023-02-18T07:56:22;103950.91;;;12.47;100.00
25430;BME280;13360;48.152;-1.788;2023-02-18T07:58:48;103957.94;;;12.49;100.00
25430;BME280;13360;48.152;-1.788;2023-02-18T08:01:14;103957.94;;;12.49;100.00
25430;BME280;13360;48.152;-1.788;2023-02-18T08:03:39;103944.50;;;12.46;100.00
25430;BME280;13360;48.152;-1.788;2023-02-18T08:06:06;103949.38;;;12.51;100.00
25430;BME280;13360;48.152;-1.788;2023-02-18T08:08:32;103950.63;;;12.55;100.00
25430;BME280;13360;48.152;-1.788;2023-02-18T08:11:00;103928.72;;;12.47;100.00
25430;BME280;13360;48.152;-1.788;2023-02-18T08:13:27;103932.03;;;12.56;100.00
25430;BME280;13360;48.152;-1.788;2023-02-18T08:15:56;103922.88;;;12.55;100.00
25430;BME280;13360;48.152;-1.788;2023-02-18T08:18:23;103897.63;;;12.45;100.00
25430;BME280;13360;48.152;-1.788;2023-02-18T08:20:49;103909.72;;;12.50;100.00
25430;BME280;13360;48.152;-1.788;2023-02-18T08:23:18;103917.09;;;12.57;100.00
25430;BME280;13360;48.152;-1.788;2023-02-18T08:25:48;103914.47;;;12.62;100.00
25430;BME280;13360;48.152;-1.788;2023-02-18T08:28:14;103916.53;;;12.66;100.00
25430;BME280;13360;48.152;-1.788;2023-02-18T08:30:47;103916.69;;;12.71;100.00
25430;BME280;13360;48.152;-1.788;2023-02-18T08:33:13;103908.38;;;12.71;100.00
25430;BME280;13360;48.152;-1.788;2023-02-18T08:35:39;103889.66;;;12.67;100.00
25430;BME280;13360;48.152;-1.788;2023-02-18T08:38:04;103902.44;;;12.68;100.00
25430;BME280;13360;48.152;-1.788;2023-02-18T08:40:30;103917.53;;;12.72;100.00
25430;BME280;13360;48.152;-1.788;2023-02-18T08:42:55;103932.63;;;12.76;100.00
25430;BME280;13360;48.152;-1.788;2023-02-18T08:45:20;103927.31;;;12.74;100.00
25430;BME280;13360;48.152;-1.788;2023-02-18T08:47:46;103926.25;;;12.75;100.00
25430;BME280;13360;48.152;-1.788;2023-02-18T08:50:11;103934.94;;;12.79;100.00
25430;BME280;13360;48.152;-1.788;2023-02-18T08:52:38;103938.31;;;12.81;100.00
25430;BME280;13360;48.152;-1.788;2023-02-18T08:55:04;103941.47;;;12.85;100.00
25430;BME280;13360;48.152;-1.788;2023-02-18T08:57:30;103942.53;;;12.83;100.00
25430;BME280;13360;48.152;-1.788;2023-02-18T08:59:55;103941.47;;;12.85;100.00
25430;BME280;13360;48.152;-1.788;2023-02-18T09:02:21;103924.56;;;12.74;100.00
25430;BME280;13360;48.152;-1.788;2023-02-18T09:04:46;103935.16;;;12.77;100.00
25430;BME280;13360;48.152;-1.788;2023-02-18T09:07:12;103931.31;;;12.78;100.00
25430;BME280;13360;48.152;-1.788;2023-02-18T09:09:37;103917.31;;;12.73;100.00
25430;BME280;13360;48.152;-1.788;2023-02-18T09:12:02;103925.75;;;12.78;100.00
25430;BME280;13360;48.152;-1.788;2023-02-18T09:14:28;103929.75;;;12.82;100.00
25430;BME280;13360;48.152;-1.788;2023-02-18T09:16:55;103952.38;;;12.98;100.00
25430;BME280;13360;48.152;-1.788;2023-02-18T09:19:21;103935.75;;;12.98;100.00
25430;BME280;13360;48.152;-1.788;2023-02-18T09:21:46;103895.91;;;12.92;100.00
25430;BME280;13360;48.152;-1.788;2023-02-18T09:24:11;103896.88;;;12.98;100.00
25430;BME280;13360;48.152;-1.788;2023-02-18T09:26:37;103884.94;;;12.97;100.00
25430;BME280;13360;48.152;-1.788;2023-02-18T09:29:03;103891.47;;;13.03;100.00
25430;BME280;13360;48.152;-1.788;2023-02-18T09:31:29;103885.44;;;13.06;100.00
25430;BME280;13360;48.152;-1.788;2023-02-18T09:33:59;103885.81;;;13.09;100.00
25430;BME280;13360;48.152;-1.788;2023-02-18T09:36:25;103888.50;;;13.16;100.00
25430;BME280;13360;48.152;-1.788;2023-02-18T09:38:51;103879.56;;;13.14;100.00
25430;BME280;13360;48.152;-1.788;2023-02-18T09:41:27;103873.16;;;13.13;100.00
25430;BME280;13360;48.152;-1.788;2023-02-18T09:46:57;103873.25;;;13.07;100.00
25430;BME280;13360;48.152;-1.788;2023-02-18T09:49:26;103878.72;;;13.13;100.00
25430;BME280;13360;48.152;-1.788;2023-02-18T09:51:56;103878.72;;;13.13;100.00
25430;BME280;13360;48.152;-1.788;2023-02-18T09:54:27;103866.97;;;13.11;100.00
25430;BME280;13360;48.152;-1.788;2023-02-18T09:56:52;103867.97;;;13.17;100.00
25430;BME280;13360;48.152;-1.788;2023-02-18T09:59:20;103864.00;;;13.13;100.00
25430;BME280;13360;48.152;-1.788;2023-02-18T10:01:49;103877.38;;;13.16;100.00
25430;BME280;13360;48.152;-1.788;2023-02-18T10:04:28;103874.84;;;13.15;100.00
25430;BME280;13360;48.152;-1.788;2023-02-18T10:06:56;103865.44;;;13.16;100.00
25430;BME280;13360;48.152;-1.788;2023-02-18T10:09:34;103854.06;;;13.05;100.00
25430;BME280;13360;48.152;-1.788;2023-02-18T10:14:31;103865.78;;;13.07;100.00
25430;BME280;13360;48.152;-1.788;2023-02-18T10:16:57;103881.00;;;13.17;100.00
25430;BME280;13360;48.152;-1.788;2023-02-18T10:19:30;103851.97;;;13.19;100.00
25430;BME280;13360;48.152;-1.788;2023-02-18T10:22:00;103844.00;;;13.23;100.00
25430;BME280;13360;48.152;-1.788;2023-02-18T10:26:51;103828.50;;;13.15;100.00
25430;BME280;13360;48.152;-1.788;2023-02-18T10:29:19;103818.94;;;13.11;100.00
25430;BME280;13360;48.152;-1.788;2023-02-18T10:31:58;103820.34;;;13.20;100.00
25430;BME280;13360;48.152;-1.788;2023-02-18T10:34:39;103801.50;;;13.22;100.00
25430;BME280;13360;48.152;-1.788;2023-02-18T10:40:24;103758.66;;;13.30;100.00
25430;BME280;13360;48.152;-1.788;2023-02-18T10:50:36;103656.78;;;13.30;100.00
25430;BME280;13360;48.152;-1.788;2023-02-18T10:55:44;103639.00;;;13.43;100.00
25430;BME280;13360;48.152;-1.788;2023-02-18T10:58:29;103622.09;;;13.45;100.00
25430;BME280;13360;48.152;-1.788;2023-02-18T11:00:56;103605.53;;;13.50;100.00
25430;BME280;13360;48.152;-1.788;2023-02-18T11:03:26;103603.34;;;13.52;100.00
25430;BME280;13360;48.152;-1.788;2023-02-18T11:06:03;103582.63;;;13.42;100.00
25430;BME280;13360;48.152;-1.788;2023-02-18T11:08:38;103563.44;;;13.41;100.00
25430;BME280;13360;48.152;-1.788;2023-02-18T11:11:13;103541.84;;;13.43;100.00
25430;BME280;13360;48.152;-1.788;2023-02-18T11:13:40;103533.00;;;13.46;100.00
25430;BME280;13360;48.152;-1.788;2023-02-18T11:16:06;103531.66;;;13.49;100.00
25430;BME280;13360;48.152;-1.788;2023-02-18T11:18:41;103521.56;;;13.42;100.00
25430;BME280;13360;48.152;-1.788;2023-02-18T11:23:50;103511.59;;;13.58;100.00
25430;BME280;13360;48.152;-1.788;2023-02-18T11:26:17;103495.81;;;13.47;100.00
25430;BME280;13360;48.152;-1.788;2023-02-18T11:28:46;103492.97;;;13.59;100.00
25430;BME280;13360;48.152;-1.788;2023-02-18T11:31:23;103498.97;;;13.67;100.00
25430;BME280;13360;48.152;-1.788;2023-02-18T11:33:55;103483.97;;;13.68;100.00
25430;BME280;13360;48.152;-1.788;2023-02-18T11:36:27;103477.66;;;13.73;100.00
25430;BME280;13360;48.152;-1.788;2023-02-18T11:39:18;103463.19;;;13.71;100.00
25430;BME280;13360;48.152;-1.788;2023-02-18T11:42:00;103455.34;;;13.68;100.00
25430;BME280;13360;48.152;-1.788;2023-02-18T11:44:28;103446.28;;;13.56;100.00
25430;BME280;13360;48.152;-1.788;2023-02-18T11:49:36;103443.31;;;13.46;100.00
25430;BME280;13360;48.152;-1.788;2023-02-18T11:52:19;103448.00;;;13.45;100.00
25430;BME280;13360;48.152;-1.788;2023-02-18T11:55:20;103452.13;;;13.42;100.00
25430;BME280;13360;48.152;-1.788;2023-02-18T11:57:56;103448.28;;;13.43;100.00
25430;BME280;13360;48.152;-1.788;2023-02-18T12:00:39;103455.00;;;13.48;100.00
25430;BME280;13360;48.152;-1.788;2023-02-18T12:03:29;103466.44;;;13.51;100.00
25430;BME280;13360;48.152;-1.788;2023-02-18T12:06:02;103455.00;;;13.48;100.00
25430;BME280;13360;48.152;-1.788;2023-02-18T12:08:32;103427.50;;;13.46;100.00
25430;BME280;13360;48.152;-1.788;2023-02-18T12:11:16;103414.03;;;13.38;100.00
25430;BME280;13360;48.152;-1.788;2023-02-18T12:13:54;103414.88;;;13.38;100.00
25430;BME280;13360;48.152;-1.788;2023-02-18T12:24:16;103398.72;;;13.35;100.00
25430;BME280;13360;48.152;-1.788;2023-02-18T12:29:54;103405.84;;;13.48;100.00
25430;BME280;13360;48.152;-1.788;2023-02-18T12:35:24;103380.78;;;13.60;100.00
25430;BME280;13360;48.152;-1.788;2023-02-18T12:43:36;103369.63;;;13.55;100.00
25430;BME280;13360;48.152;-1.788;2023-02-18T12:46:36;103384.59;;;13.54;100.00
25430;BME280;13360;48.152;-1.788;2023-02-18T12:49:22;103360.00;;;13.46;100.00
25430;BME280;13360;48.152;-1.788;2023-02-18T13:00:10;103333.16;;;13.51;100.00
25430;BME280;13360;48.152;-1.788;2023-02-18T13:05:40;103330.75;;;13.55;100.00
25430;BME280;13360;48.152;-1.788;2023-02-18T13:13:50;103328.53;;;13.57;100.00
25430;BME280;13360;48.152;-1.788;2023-02-18T13:16:20;103319.63;;;13.55;100.00
25430;BME280;13360;48.152;-1.788;2023-02-18T13:19:02;103334.22;;;13.67;100.00
25430;BME280;13360;48.152;-1.788;2023-02-18T13:21:31;103333.72;;;13.70;100.00
25430;BME280;13360;48.152;-1.788;2023-02-18T13:24:05;103292.50;;;13.62;100.00
25430;BME280;13360;48.152;-1.788;2023-02-18T13:26:32;103294.69;;;13.60;100.00
25430;BME280;13360;48.152;-1.788;2023-02-18T13:29:28;103315.97;;;13.71;100.00
25430;BME280;13360;48.152;-1.788;2023-02-18T13:32:17;103297.22;;;13.61;100.00
25430;BME280;13360;48.152;-1.788;2023-02-18T13:38:02;103287.94;;;13.72;100.00
25430;BME280;13360;48.152;-1.788;2023-02-18T13:40:26;103292.16;;;13.75;100.00
25430;BME280;13360;48.152;-1.788;2023-02-18T13:48:29;103274.28;;;13.71;100.00
25430;BME280;13360;48.152;-1.788;2023-02-18T13:51:04;103287.09;;;13.72;100.00
25430;BME280;13360;48.152;-1.788;2023-02-18T13:53:37;103259.19;;;13.62;100.00
25430;BME280;13360;48.152;-1.788;2023-02-18T13:56:09;103243.63;;;13.61;100.00
25430;BME280;13360;48.152;-1.788;2023-02-18T13:58:40;103250.59;;;13.63;100.00
25430;BME280;13360;48.152;-1.788;2023-02-18T14:03:55;103255.88;;;13.65;100.00
25430;BME280;13360;48.152;-1.788;2023-02-18T14:06:25;103284.25;;;13.67;100.00
25430;BME280;13360;48.152;-1.788;2023-02-18T14:09:46;103302.06;;;13.71;100.00
25430;BME280;13360;48.152;-1.788;2023-02-18T14:11:52;103319.09;;;13.75;100.00
25430;BME280;13360;48.152;-1.788;2023-02-18T14:22:31;103302.53;;;13.63;100.00
25430;BME280;13360;48.152;-1.788;2023-02-18T14:25:26;103333.22;;;13.73;100.00
25430;BME280;13360;48.152;-1.788;2023-02-18T14:28:01;103315.38;;;13.69;100.00
25430;BME280;13360;48.152;-1.788;2023-02-18T14:30:39;103332.97;;;13.75;100.00
25430;BME280;13360;48.152;-1.788;2023-02-18T14:33:05;103325.66;;;13.68;100.00
25430;BME280;13360;48.152;-1.788;2023-02-18T14:35:39;103335.75;;;13.75;100.00
25430;BME280;13360;48.152;-1.788;2023-02-18T14:38:28;103327.16;;;13.76;100.00
25430;BME280;13360;48.152;-1.788;2023-02-18T14:46:18;103342.81;;;13.82;100.00
25430;BME280;13360;48.152;-1.788;2023-02-18T14:51:51;103342.22;;;13.80;100.00
25430;BME280;13360;48.152;-1.788;2023-02-18T14:54:18;103331.88;;;13.76;100.00
25430;BME280;13360;48.152;-1.788;2023-02-18T14:56:53;103335.81;;;13.80;100.00
25430;BME280;13360;48.152;-1.788;2023-02-18T14:59:20;103334.66;;;13.76;100.00
25430;BME280;13360;48.152;-1.788;2023-02-18T15:01:47;103308.81;;;13.75;100.00
25430;BME280;13360;48.152;-1.788;2023-02-18T15:04:14;103332.72;;;13.76;100.00